createdAt,value
2022-10-23T00:01:16.947Z,28.90
2022-10-23T00:04:09.146Z,26.10
2022-10-23T00:06:56.506Z,25.88
2022-10-23T00:09:44.266Z,22.10
2022-10-23T00:12:31.720Z,23.40
2022-10-23T00:15:22.207Z,32.10
2022-10-23T00:18:09.498Z,33.83
2022-10-23T00:20:57.360Z,29.17
2022-10-23T00:23:45.683Z,29.55
2022-10-23T00:26:33.109Z,30.02
2022-10-23T00:29:20.834Z,22.25
2022-10-23T00:32:08.245Z,23.55
2022-10-23T00:34:55.535Z,32.55
2022-10-23T00:37:43.158Z,20.15
2022-10-23T00:40:30.685Z,27.52
2022-10-23T00:43:21.044Z,26.75
2022-10-23T00:46:08.386Z,26.15
2022-10-23T00:48:56.508Z,24.88
2022-10-23T00:51:47.935Z,22.55
2022-10-23T00:54:39.194Z,27.90
2022-10-23T00:57:26.497Z,28.75
2022-10-23T01:00:17.497Z,23.20
2022-10-23T01:03:04.869Z,25.85
2022-10-23T01:05:55.134Z,31.23
2022-10-23T01:09:00.073Z,32.53
2022-10-23T01:11:55.711Z,30.60
2022-10-23T01:15:01.242Z,23.70
2022-10-23T01:17:55.556Z,25.60
2022-10-23T01:21:05.439Z,28.77
2022-10-23T01:24:20.330Z,23.80
2022-10-23T01:27:31.909Z,24.05
2022-10-23T01:30:19.290Z,30.70
2022-10-23T01:33:21.698Z,23.90
2022-10-23T01:36:13.660Z,30.58
2022-10-23T01:42:03.964Z,24.58
2022-10-23T01:45:02.304Z,31.08
2022-10-23T01:47:51.449Z,35.67
2022-10-23T01:50:41.180Z,54.10
2022-10-23T01:53:33.793Z,37.55
2022-10-23T01:56:26.880Z,32.08
2022-10-23T01:59:21.368Z,33.92
2022-10-23T02:02:12.250Z,22.27
2022-10-23T02:05:04.893Z,26.60
2022-10-23T02:07:54.505Z,27.67
2022-10-23T02:10:44.318Z,25.23
2022-10-23T02:13:59.388Z,23.77
2022-10-23T02:16:51.351Z,33.90
2022-10-23T02:22:41.234Z,44.75
2022-10-23T02:25:39.105Z,89.68
2022-10-23T02:28:38.634Z,45.60
2022-10-23T02:31:26.070Z,40.67
2022-10-23T02:34:13.381Z,38.53
2022-10-23T02:37:00.859Z,28.70
2022-10-23T02:39:49.202Z,79.97
2022-10-23T02:42:46.902Z,261.50
2022-10-23T02:45:54.368Z,76.97
2022-10-23T02:48:53.403Z,171.68
2022-10-23T02:51:56.534Z,226.52
2022-10-23T02:55:09.598Z,203.80
2022-10-23T02:58:01.547Z,259.20
2022-10-23T03:03:51.066Z,178.13
2022-10-23T03:06:39.608Z,221.80
2022-10-23T03:09:27.460Z,169.02
2022-10-23T03:12:14.737Z,128.35
2022-10-23T03:15:02.207Z,57.67
2022-10-23T03:17:49.564Z,112.28
2022-10-23T03:20:36.922Z,108.22
2022-10-23T03:23:24.247Z,76.75
2022-10-23T03:26:12.306Z,45.10
2022-10-23T03:28:59.592Z,124.82
2022-10-23T03:31:46.919Z,83.15
2022-10-23T03:34:34.826Z,143.55
2022-10-23T03:37:22.359Z,90.82
2022-10-23T03:40:10.222Z,96.75
2022-10-23T03:42:58.011Z,23.33
2022-10-23T03:45:45.613Z,287.35
2022-10-23T03:48:33.076Z,153.38
2022-10-23T03:51:20.394Z,88.78
2022-10-23T03:54:08.471Z,37.30
2022-10-23T03:56:57.576Z,23.58
2022-10-23T03:59:45.217Z,13.27
2022-10-23T04:02:33.014Z,30.40
2022-10-23T04:05:20.362Z,22.05
2022-10-23T04:08:08.036Z,24.20
2022-10-23T04:10:55.502Z,16.65
2022-10-23T04:13:42.828Z,51.00
2022-10-23T04:16:30.328Z,20.35
2022-10-23T04:19:17.979Z,22.95
2022-10-23T04:22:05.243Z,44.47
2022-10-23T04:24:52.694Z,11.38
2022-10-23T04:27:40.121Z,19.85
2022-10-23T04:30:27.608Z,13.10
2022-10-23T04:33:15.202Z,29.80
2022-10-23T04:36:02.659Z,14.13
2022-10-23T04:38:50.004Z,23.10
2022-10-23T04:41:39.264Z,28.42
2022-10-23T04:44:26.647Z,16.90
2022-10-23T04:47:13.989Z,20.00
2022-10-23T04:50:01.441Z,20.98
2022-10-23T04:52:49.048Z,17.92
2022-10-23T04:55:36.753Z,26.75
2022-10-23T04:58:25.388Z,17.60
2022-10-23T05:01:13.094Z,18.90
2022-10-23T05:04:00.694Z,16.85
2022-10-23T05:06:48.212Z,15.10
2022-10-23T05:09:36.027Z,16.88
2022-10-23T05:12:25.587Z,18.17
2022-10-23T05:15:13.387Z,19.98
2022-10-23T05:18:10.889Z,19.63
2022-10-23T05:21:22.530Z,19.80
2022-10-23T05:24:11.605Z,17.77
2022-10-23T05:26:58.926Z,23.27
2022-10-23T05:29:46.428Z,15.65
2022-10-23T05:32:34.529Z,25.75
2022-10-23T05:35:24.367Z,22.92
2022-10-23T05:38:13.155Z,20.13
2022-10-23T05:41:00.885Z,26.13
2022-10-23T05:43:48.457Z,21.85
2022-10-23T05:46:42.332Z,28.73
2022-10-23T05:49:29.620Z,20.27
2022-10-23T05:52:19.012Z,22.73
2022-10-23T05:55:06.825Z,19.20
2022-10-23T05:57:54.253Z,16.23
2022-10-23T06:00:41.683Z,17.67
2022-10-23T06:03:29.016Z,18.33
2022-10-23T06:06:16.341Z,22.63
2022-10-23T06:09:04.437Z,16.13
2022-10-23T06:11:51.747Z,15.18
2022-10-23T06:14:39.086Z,14.55
2022-10-23T06:17:27.721Z,20.40
2022-10-23T06:20:15.081Z,16.23
2022-10-23T06:23:02.604Z,13.00
2022-10-23T06:25:57.070Z,23.50
2022-10-23T06:28:44.841Z,21.17
2022-10-23T06:31:34.725Z,22.90
2022-10-23T06:34:22.336Z,19.10
2022-10-23T06:37:10.097Z,25.58
2022-10-23T06:39:57.949Z,18.63
2022-10-23T06:42:45.813Z,21.90
2022-10-23T06:45:36.472Z,20.52
2022-10-23T06:48:23.822Z,20.63
2022-10-23T06:51:13.354Z,24.50
2022-10-23T06:54:00.688Z,17.75
2022-10-23T06:56:47.997Z,49.45
2022-10-23T06:59:35.282Z,31.00
2022-10-23T07:02:22.806Z,27.48
2022-10-23T07:05:13.474Z,27.58
2022-10-23T07:08:01.274Z,29.00
2022-10-23T07:10:48.846Z,17.08
2022-10-23T07:13:37.269Z,29.35
2022-10-23T07:16:24.937Z,19.50
2022-10-23T07:19:12.299Z,20.67
2022-10-23T07:21:59.760Z,25.55
2022-10-23T07:24:47.456Z,26.45
2022-10-23T07:27:37.765Z,23.30
2022-10-23T07:30:25.168Z,20.10
2022-10-23T07:33:12.612Z,17.05
2022-10-23T07:36:00.356Z,15.98
2022-10-23T07:38:47.673Z,16.90
2022-10-23T07:41:35.021Z,17.10
2022-10-23T07:44:24.407Z,19.05
2022-10-23T07:50:01.497Z,18.80
2022-10-23T07:52:49.015Z,13.65
2022-10-23T07:55:36.445Z,16.15
2022-10-23T07:58:25.845Z,16.48
2022-10-23T08:01:20.250Z,14.70
2022-10-23T08:04:07.757Z,15.02
2022-10-23T08:06:56.331Z,19.35
2022-10-23T08:09:43.714Z,17.85
2022-10-23T08:12:31.090Z,17.20
2022-10-23T08:15:18.754Z,14.98
2022-10-23T08:18:06.282Z,14.38
2022-10-23T08:20:53.633Z,16.45
2022-10-23T08:23:41.454Z,18.40
2022-10-23T08:26:29.471Z,15.65
2022-10-23T08:29:17.166Z,16.88
2022-10-23T08:32:04.762Z,16.08
2022-10-23T08:34:53.102Z,15.30
2022-10-23T08:37:40.498Z,15.23
2022-10-23T08:40:27.988Z,15.15
2022-10-23T08:43:39.300Z,16.70
2022-10-23T08:46:31.314Z,14.87
2022-10-23T08:52:35.246Z,14.43
2022-10-23T08:55:38.548Z,11.82
2022-10-23T08:58:39.369Z,17.08
2022-10-23T09:01:46.965Z,15.90
2022-10-23T09:04:35.058Z,12.68
2022-10-23T09:07:26.622Z,20.98
2022-10-23T09:10:51.402Z,15.90
2022-10-23T09:14:07.034Z,17.80
2022-10-23T09:17:03.651Z,10.70
2022-10-23T09:19:59.172Z,17.42
2022-10-23T09:22:48.799Z,23.02
2022-10-23T09:25:38.860Z,11.35
2022-10-23T09:28:33.356Z,19.65
2022-10-23T09:31:21.257Z,16.00
2022-10-23T09:34:19.808Z,15.75
2022-10-23T09:37:29.240Z,15.48
2022-10-23T09:40:29.299Z,21.95
2022-10-23T09:43:19.323Z,14.88
2022-10-23T09:46:09.818Z,17.92
2022-10-23T09:49:00.932Z,14.63
2022-10-23T09:52:10.294Z,18.83
2022-10-23T09:55:15.730Z,17.95
2022-10-23T09:58:03.213Z,14.98
2022-10-23T10:00:53.416Z,20.67
2022-10-23T10:03:50.046Z,12.85
2022-10-23T10:06:37.550Z,16.65
2022-10-23T10:09:24.956Z,17.08
2022-10-23T10:12:38.071Z,36.25
2022-10-23T10:15:48.515Z,12.88
2022-10-23T10:18:50.526Z,14.30
2022-10-23T10:22:00.842Z,10.10
2022-10-23T10:24:56.519Z,11.20
2022-10-23T10:28:07.396Z,10.93
2022-10-23T10:31:00.867Z,12.73
2022-10-23T10:34:06.532Z,18.35
2022-10-23T10:37:32.991Z,10.13
2022-10-23T10:40:25.534Z,10.82
2022-10-23T10:43:22.121Z,11.07
2022-10-23T10:46:30.890Z,10.25
2022-10-23T10:49:52.814Z,9.10
2022-10-23T10:52:41.202Z,8.85
2022-10-23T10:55:35.790Z,11.25
2022-10-23T10:58:45.441Z,11.90
2022-10-23T11:01:38.273Z,14.20
2022-10-23T11:04:45.874Z,8.85
2022-10-23T11:07:43.167Z,14.68
2022-10-23T11:10:31.124Z,9.82
2022-10-23T11:13:33.766Z,8.93
2022-10-23T11:16:32.493Z,9.90
2022-10-23T11:19:27.622Z,7.78
2022-10-23T11:22:23.861Z,8.32
2022-10-23T11:25:31.880Z,7.32
2022-10-23T11:28:36.237Z,7.18
2022-10-23T11:32:03.242Z,10.95
2022-10-23T11:35:07.200Z,11.02
2022-10-23T11:38:11.868Z,11.20
2022-10-23T11:41:03.807Z,7.97
2022-10-23T11:43:52.958Z,10.02
2022-10-23T11:46:42.462Z,12.70
2022-10-23T11:49:29.853Z,12.18
2022-10-23T11:52:25.266Z,7.68
2022-10-23T11:55:20.108Z,9.27
2022-10-23T11:58:07.400Z,8.85
2022-10-23T12:00:59.533Z,8.95
2022-10-23T12:03:55.590Z,13.73
2022-10-23T12:06:49.798Z,7.70
2022-10-23T12:09:37.775Z,8.23
2022-10-23T12:12:29.970Z,7.72
2022-10-23T12:15:20.613Z,13.88
2022-10-23T12:18:12.085Z,9.98
2022-10-23T12:21:01.335Z,9.20
2022-10-23T12:24:22.797Z,15.77
2022-10-23T12:27:33.738Z,8.68
2022-10-23T12:33:52.310Z,12.90
2022-10-23T12:37:07.114Z,8.98
2022-10-23T12:39:56.195Z,9.50
2022-10-23T12:42:53.996Z,12.18
2022-10-23T12:45:43.984Z,10.02
2022-10-23T12:48:33.565Z,10.68
2022-10-23T12:51:25.065Z,15.25
2022-10-23T12:54:18.411Z,11.50
2022-10-23T12:57:20.109Z,9.55
2022-10-23T13:00:15.550Z,9.00
2022-10-23T13:03:04.344Z,12.48
2022-10-23T13:05:53.606Z,12.15
2022-10-23T13:08:46.608Z,20.73
2022-10-23T13:11:34.322Z,11.77
2022-10-23T13:14:43.594Z,12.82
2022-10-23T13:17:42.309Z,10.77
2022-10-23T13:20:43.215Z,13.38
2022-10-23T13:23:33.407Z,10.63
2022-10-23T13:26:29.927Z,11.98
2022-10-23T13:29:37.585Z,7.15
2022-10-23T13:32:28.868Z,9.40
2022-10-23T13:35:23.084Z,16.30
2022-10-23T13:38:10.785Z,13.32
2022-10-23T13:40:59.658Z,12.55
2022-10-23T13:43:47.758Z,8.70
2022-10-23T13:46:35.041Z,9.20
2022-10-23T13:49:22.393Z,9.90
2022-10-23T13:52:13.012Z,11.95
2022-10-23T13:55:00.339Z,8.93
2022-10-23T13:57:48.063Z,11.68
2022-10-23T14:00:38.042Z,10.18
2022-10-23T14:03:25.371Z,16.33
2022-10-23T14:06:12.730Z,10.63
2022-10-23T14:09:00.140Z,9.93
2022-10-23T14:11:47.794Z,8.82
2022-10-23T14:14:35.103Z,8.20
2022-10-23T14:17:22.746Z,9.45
2022-10-23T14:20:10.707Z,9.93
2022-10-23T14:22:57.965Z,11.02
2022-10-23T14:25:45.243Z,9.00
2022-10-23T14:28:33.219Z,9.35
2022-10-23T14:31:20.909Z,9.00
2022-10-23T14:34:08.827Z,13.07
2022-10-23T14:37:08.070Z,9.05
2022-10-23T14:39:56.338Z,8.98
2022-10-23T14:42:44.061Z,10.02
2022-10-23T14:45:31.778Z,8.25
2022-10-23T14:48:19.940Z,10.20
2022-10-23T14:51:16.013Z,10.32
2022-10-23T14:54:05.338Z,6.55
2022-10-23T14:56:52.610Z,15.10
2022-10-23T14:59:39.994Z,10.68
2022-10-23T15:02:27.386Z,11.55
2022-10-23T15:05:15.017Z,12.35
2022-10-23T15:08:02.290Z,11.30
2022-10-23T15:10:49.981Z,11.52
2022-10-23T15:13:37.595Z,8.20
2022-10-23T15:16:24.998Z,11.65
2022-10-23T15:19:18.118Z,11.07
2022-10-23T15:22:06.314Z,5.97
2022-10-23T15:24:57.092Z,7.90
2022-10-23T15:27:44.687Z,10.60
2022-10-23T15:30:33.085Z,11.93
2022-10-23T15:33:22.517Z,11.60
2022-10-23T15:36:09.808Z,10.15
2022-10-23T15:38:57.936Z,18.50
2022-10-23T15:41:45.734Z,16.27
2022-10-23T15:44:34.190Z,10.90
2022-10-23T15:47:21.577Z,13.95
2022-10-23T15:50:09.224Z,10.70
2022-10-23T15:52:56.585Z,13.00
2022-10-23T15:55:43.890Z,15.30
2022-10-23T15:58:31.212Z,15.40
2022-10-23T16:01:18.962Z,9.27
2022-10-23T16:04:06.522Z,9.25
2022-10-23T16:06:53.857Z,13.10
2022-10-23T16:09:41.759Z,11.40
2022-10-23T16:12:29.207Z,12.82
2022-10-23T16:15:16.576Z,13.63
2022-10-23T16:18:04.676Z,11.80
2022-10-23T16:20:55.094Z,14.68
2022-10-23T16:23:42.543Z,13.75
2022-10-23T16:26:30.707Z,7.38
2022-10-23T16:29:18.122Z,16.77
2022-10-23T16:32:05.677Z,10.25
2022-10-23T16:34:52.967Z,9.65
2022-10-23T16:37:40.575Z,15.75
2022-10-23T16:40:27.926Z,11.45
2022-10-23T16:43:15.301Z,9.85
2022-10-23T16:46:14.697Z,12.80
2022-10-23T16:49:06.113Z,9.60
2022-10-23T16:51:53.955Z,8.73
2022-10-23T16:54:43.229Z,10.05
2022-10-23T16:57:30.830Z,12.13
2022-10-23T17:00:21.900Z,13.38
2022-10-23T17:03:10.893Z,6.90
2022-10-23T17:06:04.151Z,12.60
2022-10-23T17:08:55.277Z,5.90
2022-10-23T17:11:44.439Z,5.53
2022-10-23T17:14:32.877Z,7.13
2022-10-23T17:17:20.620Z,10.98
2022-10-23T17:20:08.490Z,10.38
2022-10-23T17:22:56.067Z,12.38
2022-10-23T17:25:43.501Z,8.55
2022-10-23T17:28:32.099Z,9.73
2022-10-23T17:31:25.351Z,6.95
2022-10-23T17:34:15.459Z,9.07
2022-10-23T17:37:03.260Z,8.63
2022-10-23T17:39:51.020Z,7.90
2022-10-23T17:42:39.799Z,7.20
2022-10-23T17:45:27.147Z,10.15
2022-10-23T17:48:17.109Z,9.65
2022-10-23T17:51:12.391Z,9.07
2022-10-23T17:54:01.990Z,6.00
2022-10-23T17:56:49.410Z,5.63
2022-10-23T17:59:38.964Z,11.45
2022-10-23T18:02:26.910Z,8.38
2022-10-23T18:05:14.626Z,19.00
2022-10-23T18:08:05.185Z,13.68
2022-10-23T18:10:52.498Z,10.35
2022-10-23T18:13:39.853Z,9.45
2022-10-23T18:16:27.664Z,11.38
2022-10-23T18:19:18.190Z,7.55
2022-10-23T18:22:05.760Z,11.70
2022-10-23T18:24:53.181Z,11.98
2022-10-23T18:27:41.482Z,15.05
2022-10-23T18:30:28.957Z,9.82
2022-10-23T18:33:16.873Z,13.38
2022-10-23T18:36:12.500Z,23.63
2022-10-23T18:38:59.855Z,8.70
2022-10-23T18:41:47.211Z,11.95
2022-10-23T18:44:34.853Z,5.90
2022-10-23T18:47:22.124Z,19.30
2022-10-23T18:50:09.921Z,10.32
2022-10-23T18:52:57.648Z,8.88
2022-10-23T18:55:46.748Z,12.23
2022-10-23T18:58:34.417Z,10.75
2022-10-23T19:01:22.667Z,8.70
2022-10-23T19:04:15.929Z,7.75
2022-10-23T19:07:03.518Z,10.18
2022-10-23T19:09:51.214Z,8.57
2022-10-23T19:12:38.529Z,14.43
2022-10-23T19:15:25.998Z,12.75
2022-10-23T19:18:13.605Z,15.82
2022-10-23T19:21:01.394Z,12.60
2022-10-23T19:23:49.930Z,10.27
2022-10-23T19:26:38.751Z,8.52
2022-10-23T19:29:26.775Z,8.20
2022-10-23T19:32:15.080Z,7.80
2022-10-23T19:35:03.852Z,9.02
2022-10-23T19:37:51.168Z,12.45
2022-10-23T19:40:38.635Z,10.40
2022-10-23T19:43:26.259Z,9.40
2022-10-23T19:46:13.742Z,12.55
2022-10-23T19:49:01.107Z,7.95
2022-10-23T19:51:51.199Z,9.43
2022-10-23T19:54:41.284Z,9.82
2022-10-23T19:57:30.489Z,11.65
2022-10-23T20:00:18.533Z,23.80
2022-10-23T20:03:06.111Z,10.90
2022-10-23T20:05:53.455Z,11.10
2022-10-23T20:08:41.398Z,12.77
2022-10-23T20:11:31.296Z,11.35
2022-10-23T20:14:20.041Z,14.15
2022-10-23T20:17:07.380Z,11.07
2022-10-23T20:19:54.859Z,9.82
2022-10-23T20:22:44.111Z,19.42
2022-10-23T20:25:31.575Z,17.02
2022-10-23T20:28:19.467Z,8.88
2022-10-23T20:31:11.346Z,14.43
2022-10-23T20:36:49.097Z,7.00
2022-10-23T20:39:36.760Z,7.50
2022-10-23T20:42:24.091Z,6.20
2022-10-23T20:45:11.384Z,11.20
2022-10-23T20:47:58.728Z,8.85
2022-10-23T20:50:46.071Z,9.63
2022-10-23T20:53:38.502Z,8.80
2022-10-23T20:56:31.066Z,16.92
2022-10-23T20:59:19.247Z,9.80
2022-10-23T21:02:07.118Z,21.23
2022-10-23T21:04:54.548Z,9.32
2022-10-23T21:07:41.866Z,15.68
2022-10-23T21:10:29.266Z,10.27
2022-10-23T21:13:16.992Z,6.03
2022-10-23T21:16:24.837Z,9.55
2022-10-23T21:19:16.432Z,7.13
2022-10-23T21:22:03.854Z,14.15
2022-10-23T21:24:51.103Z,9.10
2022-10-23T21:27:38.430Z,12.98
2022-10-23T21:30:25.711Z,6.20
2022-10-23T21:33:14.630Z,9.60
2022-10-23T21:36:14.267Z,7.47
2022-10-23T21:39:03.697Z,8.15
2022-10-23T21:41:50.989Z,10.07
2022-10-23T21:44:38.328Z,9.02
2022-10-23T21:47:25.749Z,9.35
2022-10-23T21:50:13.459Z,7.47
2022-10-23T21:53:00.779Z,10.23
2022-10-23T21:55:48.155Z,17.33
2022-10-23T21:58:36.059Z,7.53
2022-10-23T22:01:23.809Z,14.02
2022-10-23T22:04:17.281Z,7.22
2022-10-23T22:07:05.853Z,10.35
